sensor_id;sensor_type;location;lat;lon;timestamp;temperature;humidity
666;DHT22;315;48.738;9.126;2023-09-12T00:01:04;20.30;99.90
666;DHT22;315;48.738;9.126;2023-09-12T00:03:31;20.40;99.90
666;DHT22;315;48.738;9.126;2023-09-12T00:05:58;20.30;99.90
666;DHT22;315;48.738;9.126;2023-09-12T00:08:24;20.30;99.90
666;DHT22;315;48.738;9.126;2023-09-12T00:11:03;20.30;99.90
666;DHT22;315;48.738;9.126;2023-09-12T00:13:30;20.30;99.90
666;DHT22;315;48.738;9.126;2023-09-12T00:15:56;20.20;99.90
666;DHT22;315;48.738;9.126;2023-09-12T00:18:22;20.20;99.90
666;DHT22;315;48.738;9.126;2023-09-12T00:20:47;20.10;99.90
666;DHT22;315;48.738;9.126;2023-09-12T00:23:13;20.10;99.90
666;DHT22;315;48.738;9.126;2023-09-12T00:25:38;20.00;99.90
666;DHT22;315;48.738;9.126;2023-09-12T00:28:04;20.00;99.90
666;DHT22;315;48.738;9.126;2023-09-12T00:30:29;20.00;99.90
666;DHT22;315;48.738;9.126;2023-09-12T00:32:55;20.00;99.90
666;DHT22;315;48.738;9.126;2023-09-12T00:35:20;20.00;99.90
666;DHT22;315;48.738;9.126;2023-09-12T00:37:46;20.00;99.90
666;DHT22;315;48.738;9.126;2023-09-12T00:40:11;20.10;99.90
666;DHT22;315;48.738;9.126;2023-09-12T00:42:37;20.00;99.90
666;DHT22;315;48.738;9.126;2023-09-12T00:45:02;20.00;99.90
666;DHT22;315;48.738;9.126;2023-09-12T00:47:29;19.90;99.90
666;DHT22;315;48.738;9.126;2023-09-12T00:49:56;19.90;99.90
666;DHT22;315;48.738;9.126;2023-09-12T00:52:23;19.90;99.90
666;DHT22;315;48.738;9.126;2023-09-12T00:54:50;20.00;99.90
666;DHT22;315;48.738;9.126;2023-09-12T00:57:16;19.90;99.90
666;DHT22;315;48.738;9.126;2023-09-12T00:59:42;20.00;99.90
666;DHT22;315;48.738;9.126;2023-09-12T01:02:07;19.80;99.90
666;DHT22;315;48.738;9.126;2023-09-12T01:04:35;20.00;99.90
666;DHT22;315;48.738;9.126;2023-09-12T01:07:02;19.70;99.90
666;DHT22;315;48.738;9.126;2023-09-12T01:09:28;19.70;99.90
666;DHT22;315;48.738;9.126;2023-09-12T01:11:54;19.80;99.90
666;DHT22;315;48.738;9.126;2023-09-12T01:14:20;19.50;99.90
666;DHT22;315;48.738;9.126;2023-09-12T01:16:45;19.40;99.90
666;DHT22;315;48.738;9.126;2023-09-12T01:19:12;19.40;99.90
666;DHT22;315;48.738;9.126;2023-09-12T01:27:20;19.20;99.90
666;DHT22;315;48.738;9.126;2023-09-12T01:29:49;19.20;99.90
666;DHT22;315;48.738;9.126;2023-09-12T01:32:18;19.30;99.90
666;DHT22;315;48.738;9.126;2023-09-12T01:34:44;19.30;99.90
666;DHT22;315;48.738;9.126;2023-09-12T01:37:09;19.40;99.90
666;DHT22;315;48.738;9.126;2023-09-12T01:39:35;19.70;99.90
666;DHT22;315;48.738;9.126;2023-09-12T01:42:01;19.60;99.90
666;DHT22;315;48.738;9.126;2023-09-12T01:44:28;19.50;99.90
666;DHT22;315;48.738;9.126;2023-09-12T01:46:55;19.60;99.90
666;DHT22;315;48.738;9.126;2023-09-12T01:49:24;19.60;99.90
666;DHT22;315;48.738;9.126;2023-09-12T01:51:50;19.70;99.90
666;DHT22;315;48.738;9.126;2023-09-12T01:54:16;19.70;99.90
666;DHT22;315;48.738;9.126;2023-09-12T01:56:43;19.60;99.90
666;DHT22;315;48.738;9.126;2023-09-12T01:59:09;19.80;99.90
666;DHT22;315;48.738;9.126;2023-09-12T02:01:34;19.50;99.90
666;DHT22;315;48.738;9.126;2023-09-12T02:04:00;19.70;99.90
666;DHT22;315;48.738;9.126;2023-09-12T02:06:25;19.40;99.90
666;DHT22;315;48.738;9.126;2023-09-12T02:08:51;19.50;99.90
666;DHT22;315;48.738;9.126;2023-09-12T02:11:16;19.50;99.90
666;DHT22;315;48.738;9.126;2023-09-12T02:13:42;19.50;99.90
666;DHT22;315;48.738;9.126;2023-09-12T02:16:07;19.50;99.90
666;DHT22;315;48.738;9.126;2023-09-12T02:18:33;19.50;99.90
666;DHT22;315;48.738;9.126;2023-09-12T02:20:58;19.50;99.90
666;DHT22;315;48.738;9.126;2023-09-12T02:23:24;19.40;99.90
666;DHT22;315;48.738;9.126;2023-09-12T02:25:49;19.40;99.90
666;DHT22;315;48.738;9.126;2023-09-12T02:28:15;19.30;99.90
666;DHT22;315;48.738;9.126;2023-09-12T02:30:41;19.30;99.90
666;DHT22;315;48.738;9.126;2023-09-12T02:33:06;19.30;99.90
666;DHT22;315;48.738;9.126;2023-09-12T02:35:32;19.30;99.90
666;DHT22;315;48.738;9.126;2023-09-12T02:37:57;19.30;99.90
666;DHT22;315;48.738;9.126;2023-09-12T02:40:23;19.30;99.90
666;DHT22;315;48.738;9.126;2023-09-12T02:42:49;19.20;99.90
666;DHT22;315;48.738;9.126;2023-09-12T02:45:14;19.20;99.90
666;DHT22;315;48.738;9.126;2023-09-12T02:47:40;19.20;99.90
666;DHT22;315;48.738;9.126;2023-09-12T02:50:06;19.20;99.90
666;DHT22;315;48.738;9.126;2023-09-12T02:52:31;19.20;99.90
666;DHT22;315;48.738;9.126;2023-09-12T02:54:57;19.20;99.90
666;DHT22;315;48.738;9.126;2023-09-12T02:57:22;19.20;99.90
666;DHT22;315;48.738;9.126;2023-09-12T02:59:48;19.10;99.90
666;DHT22;315;48.738;9.126;2023-09-12T03:02:13;19.00;99.90
666;DHT22;315;48.738;9.126;2023-09-12T03:04:39;19.00;99.90
666;DHT22;315;48.738;9.126;2023-09-12T03:07:04;19.10;99.90
666;DHT22;315;48.738;9.126;2023-09-12T03:09:30;19.10;99.90
666;DHT22;315;48.738;9.126;2023-09-12T03:11:56;19.10;99.90
666;DHT22;315;48.738;9.126;2023-09-12T03:14:21;19.10;99.90
666;DHT22;315;48.738;9.126;2023-09-12T03:16:47;19.10;99.90
666;DHT22;315;48.738;9.126;2023-09-12T03:19:12;19.10;99.90
666;DHT22;315;48.738;9.126;2023-09-12T03:21:38;19.10;99.90
666;DHT22;315;48.738;9.126;2023-09-12T03:24:04;19.00;99.90
666;DHT22;315;48.738;9.126;2023-09-12T03:26:30;18.90;99.90
666;DHT22;315;48.738;9.126;2023-09-12T03:28:55;18.80;99.90
666;DHT22;315;48.738;9.126;2023-09-12T03:31:21;18.80;99.90
666;DHT22;315;48.738;9.126;2023-09-12T03:33:46;18.80;99.90
666;DHT22;315;48.738;9.126;2023-09-12T03:36:15;18.70;99.90
666;DHT22;315;48.738;9.126;2023-09-12T03:38:40;18.70;99.90
666;DHT22;315;48.738;9.126;2023-09-12T03:41:06;18.70;99.90
666;DHT22;315;48.738;9.126;2023-09-12T03:43:33;18.70;99.90
666;DHT22;315;48.738;9.126;2023-09-12T03:45:59;18.80;99.90
666;DHT22;315;48.738;9.126;2023-09-12T03:48:24;18.80;99.90
666;DHT22;315;48.738;9.126;2023-09-12T03:50:50;18.80;99.90
666;DHT22;315;48.738;9.126;2023-09-12T03:53:15;18.70;99.90
666;DHT22;315;48.738;9.126;2023-09-12T03:55:41;18.80;99.90
666;DHT22;315;48.738;9.126;2023-09-12T03:58:07;18.70;99.90
666;DHT22;315;48.738;9.126;2023-09-12T04:00:33;18.80;99.90
666;DHT22;315;48.738;9.126;2023-09-12T04:02:58;18.70;99.90
666;DHT22;315;48.738;9.126;2023-09-12T04:05:25;18.70;99.90
666;DHT22;315;48.738;9.126;2023-09-12T04:07:50;18.70;99.90
666;DHT22;315;48.738;9.126;2023-09-12T04:10:17;18.70;99.90
666;DHT22;315;48.738;9.126;2023-09-12T04:12:44;18.70;99.90
666;DHT22;315;48.738;9.126;2023-09-12T04:15:09;18.60;99.90
666;DHT22;315;48.738;9.126;2023-09-12T04:17:35;18.60;99.90
666;DHT22;315;48.738;9.126;2023-09-12T04:20:00;18.50;99.90
666;DHT22;315;48.738;9.126;2023-09-12T04:22:26;18.50;99.90
666;DHT22;315;48.738;9.126;2023-09-12T04:24:51;18.60;99.90
666;DHT22;315;48.738;9.126;2023-09-12T04:27:17;18.60;99.90
666;DHT22;315;48.738;9.126;2023-09-12T04:29:42;18.50;99.90
666;DHT22;315;48.738;9.126;2023-09-12T04:32:08;18.60;99.90
666;DHT22;315;48.738;9.126;2023-09-12T04:34:33;18.60;99.90
666;DHT22;315;48.738;9.126;2023-09-12T04:36:59;18.50;99.90
666;DHT22;315;48.738;9.126;2023-09-12T04:39:24;18.70;99.90
666;DHT22;315;48.738;9.126;2023-09-12T04:41:50;18.60;99.90
666;DHT22;315;48.738;9.126;2023-09-12T04:44:15;18.70;99.90
666;DHT22;315;48.738;9.126;2023-09-12T04:46:41;18.60;99.90
666;DHT22;315;48.738;9.126;2023-09-12T04:49:06;18.60;99.90
666;DHT22;315;48.738;9.126;2023-09-12T04:51:32;18.60;99.90
666;DHT22;315;48.738;9.126;2023-09-12T04:53:57;18.50;99.90
666;DHT22;315;48.738;9.126;2023-09-12T04:56:23;18.60;99.90
666;DHT22;315;48.738;9.126;2023-09-12T04:58:50;18.60;99.90
666;DHT22;315;48.738;9.126;2023-09-12T05:01:15;18.60;99.90
666;DHT22;315;48.738;9.126;2023-09-12T05:03:42;18.70;99.90
666;DHT22;315;48.738;9.126;2023-09-12T05:06:07;18.60;99.90
666;DHT22;315;48.738;9.126;2023-09-12T05:08:33;18.60;99.90
666;DHT22;315;48.738;9.126;2023-09-12T05:10:58;18.70;99.90
666;DHT22;315;48.738;9.126;2023-09-12T05:13:24;18.70;99.90
666;DHT22;315;48.738;9.126;2023-09-12T05:15:49;18.80;99.90
666;DHT22;315;48.738;9.126;2023-09-12T05:18:15;18.80;99.90
666;DHT22;315;48.738;9.126;2023-09-12T05:20:41;18.90;99.90
666;DHT22;315;48.738;9.126;2023-09-12T05:23:06;19.00;99.90
666;DHT22;315;48.738;9.126;2023-09-12T05:25:32;19.10;99.90
666;DHT22;315;48.738;9.126;2023-09-12T05:27:57;19.20;99.90
666;DHT22;315;48.738;9.126;2023-09-12T05:30:23;19.30;99.90
666;DHT22;315;48.738;9.126;2023-09-12T05:32:48;19.40;99.90
666;DHT22;315;48.738;9.126;2023-09-12T05:35:14;19.50;99.90
666;DHT22;315;48.738;9.126;2023-09-12T05:37:39;19.60;99.90
666;DHT22;315;48.738;9.126;2023-09-12T05:40:05;19.70;99.90
666;DHT22;315;48.738;9.126;2023-09-12T05:42:31;19.80;99.90
666;DHT22;315;48.738;9.126;2023-09-12T05:44:57;20.00;99.90
666;DHT22;315;48.738;9.126;2023-09-12T05:47:23;20.20;99.90
666;DHT22;315;48.738;9.126;2023-09-12T05:49:48;20.40;99.90
666;DHT22;315;48.738;9.126;2023-09-12T05:52:14;20.50;99.90
666;DHT22;315;48.738;9.126;2023-09-12T05:54:40;20.60;99.90
666;DHT22;315;48.738;9.126;2023-09-12T05:57:09;20.60;99.90
666;DHT22;315;48.738;9.126;2023-09-12T05:59:37;20.60;99.90
666;DHT22;315;48.738;9.126;2023-09-12T06:02:04;20.70;99.90
666;DHT22;315;48.738;9.126;2023-09-12T06:04:30;20.80;99.90
666;DHT22;315;48.738;9.126;2023-09-12T06:06:55;20.90;99.90
666;DHT22;315;48.738;9.126;2023-09-12T06:09:21;20.90;99.90
666;DHT22;315;48.738;9.126;2023-09-12T06:11:46;21.00;99.90
666;DHT22;315;48.738;9.126;2023-09-12T06:14:12;21.20;99.90
666;DHT22;315;48.738;9.126;2023-09-12T06:16:37;21.30;99.90
666;DHT22;315;48.738;9.126;2023-09-12T06:19:03;21.40;99.90
666;DHT22;315;48.738;9.126;2023-09-12T06:21:28;21.60;99.90
666;DHT22;315;48.738;9.126;2023-09-12T06:24:14;21.70;99.90
666;DHT22;315;48.738;9.126;2023-09-12T06:26:41;21.80;99.90
666;DHT22;315;48.738;9.126;2023-09-12T06:29:06;22.00;99.90
666;DHT22;315;48.738;9.126;2023-09-12T06:31:32;22.10;99.90
666;DHT22;315;48.738;9.126;2023-09-12T06:33:58;22.10;99.90
666;DHT22;315;48.738;9.126;2023-09-12T06:36:27;22.10;99.90
666;DHT22;315;48.738;9.126;2023-09-12T06:38:55;22.10;99.90
666;DHT22;315;48.738;9.126;2023-09-12T06:41:21;22.20;99.90
666;DHT22;315;48.738;9.126;2023-09-12T06:43:47;22.40;99.90
666;DHT22;315;48.738;9.126;2023-09-12T06:46:14;22.40;99.90
666;DHT22;315;48.738;9.126;2023-09-12T06:48:40;22.50;99.90
666;DHT22;315;48.738;9.126;2023-09-12T06:51:08;22.60;99.90
666;DHT22;315;48.738;9.126;2023-09-12T06:53:33;22.70;99.90
666;DHT22;315;48.738;9.126;2023-09-12T06:55:59;22.80;99.90
666;DHT22;315;48.738;9.126;2023-09-12T06:58:25;22.80;99.90
666;DHT22;315;48.738;9.126;2023-09-12T07:00:50;22.80;99.90
666;DHT22;315;48.738;9.126;2023-09-12T07:03:16;22.80;99.90
666;DHT22;315;48.738;9.126;2023-09-12T07:05:42;22.90;99.90
666;DHT22;315;48.738;9.126;2023-09-12T07:08:08;23.20;99.90
666;DHT22;315;48.738;9.126;2023-09-12T07:10:34;23.50;99.90
666;DHT22;315;48.738;9.126;2023-09-12T07:12:59;23.90;99.90
666;DHT22;315;48.738;9.126;2023-09-12T07:15:25;24.20;99.90
666;DHT22;315;48.738;9.126;2023-09-12T07:17:50;24.30;99.90
666;DHT22;315;48.738;9.126;2023-09-12T07:20:16;24.30;99.90
666;DHT22;315;48.738;9.126;2023-09-12T07:22:43;24.30;99.90
666;DHT22;315;48.738;9.126;2023-09-12T07:25:09;24.50;99.90
666;DHT22;315;48.738;9.126;2023-09-12T07:27:37;24.90;99.90
666;DHT22;315;48.738;9.126;2023-09-12T07:30:04;25.00;99.90
666;DHT22;315;48.738;9.126;2023-09-12T07:32:29;25.20;99.90
666;DHT22;315;48.738;9.126;2023-09-12T07:34:55;25.40;99.90
666;DHT22;315;48.738;9.126;2023-09-12T07:37:20;25.70;99.90
666;DHT22;315;48.738;9.126;2023-09-12T07:39:46;25.90;99.90
666;DHT22;315;48.738;9.126;2023-09-12T07:42:11;26.10;99.90
666;DHT22;315;48.738;9.126;2023-09-12T07:44:37;26.30;99.90
666;DHT22;315;48.738;9.126;2023-09-12T07:47:03;26.60;99.90
666;DHT22;315;48.738;9.126;2023-09-12T07:49:29;27.00;99.90
666;DHT22;315;48.738;9.126;2023-09-12T07:51:54;27.10;99.90
666;DHT22;315;48.738;9.126;2023-09-12T07:54:22;27.00;99.90
666;DHT22;315;48.738;9.126;2023-09-12T07:56:48;27.20;99.90
666;DHT22;315;48.738;9.126;2023-09-12T07:59:13;27.30;99.90
666;DHT22;315;48.738;9.126;2023-09-12T08:01:40;27.50;99.90
666;DHT22;315;48.738;9.126;2023-09-12T08:04:05;27.50;99.90
666;DHT22;315;48.738;9.126;2023-09-12T08:06:32;27.50;99.90
666;DHT22;315;48.738;9.126;2023-09-12T08:08:58;27.80;99.90
666;DHT22;315;48.738;9.126;2023-09-12T08:11:23;28.50;99.90
666;DHT22;315;48.738;9.126;2023-09-12T08:13:49;28.70;99.90
666;DHT22;315;48.738;9.126;2023-09-12T08:16:15;28.30;99.90
666;DHT22;315;48.738;9.126;2023-09-12T08:18:41;28.00;99.90
666;DHT22;315;48.738;9.126;2023-09-12T08:21:06;27.60;99.90
666;DHT22;315;48.738;9.126;2023-09-12T08:23:32;27.30;99.90
666;DHT22;315;48.738;9.126;2023-09-12T08:25:57;27.40;99.90
666;DHT22;315;48.738;9.126;2023-09-12T08:28:23;27.30;99.90
666;DHT22;315;48.738;9.126;2023-09-12T08:30:48;27.20;99.90
666;DHT22;315;48.738;9.126;2023-09-12T08:33:14;27.30;99.90
666;DHT22;315;48.738;9.126;2023-09-12T08:35:40;27.90;99.90
666;DHT22;315;48.738;9.126;2023-09-12T08:38:06;28.60;99.90
666;DHT22;315;48.738;9.126;2023-09-12T08:40:33;29.20;99.90
666;DHT22;315;48.738;9.126;2023-09-12T08:43:00;30.10;99.90
666;DHT22;315;48.738;9.126;2023-09-12T08:45:26;31.10;99.90
666;DHT22;315;48.738;9.126;2023-09-12T08:47:53;32.00;99.90
666;DHT22;315;48.738;9.126;2023-09-12T08:50:20;32.70;97.80
666;DHT22;315;48.738;9.126;2023-09-12T08:52:48;33.00;95.90
666;DHT22;315;48.738;9.126;2023-09-12T08:55:14;33.20;94.80
666;DHT22;315;48.738;9.126;2023-09-12T08:57:43;33.30;93.30
666;DHT22;315;48.738;9.126;2023-09-12T09:00:10;32.90;93.60
666;DHT22;315;48.738;9.126;2023-09-12T09:02:42;33.00;92.80
666;DHT22;315;48.738;9.126;2023-09-12T09:05:10;33.50;92.30
666;DHT22;315;48.738;9.126;2023-09-12T09:07:37;34.00;90.90
666;DHT22;315;48.738;9.126;2023-09-12T09:10:09;34.50;88.90
666;DHT22;315;48.738;9.126;2023-09-12T09:12:35;34.70;86.40
666;DHT22;315;48.738;9.126;2023-09-12T09:15:20;35.20;82.70
666;DHT22;315;48.738;9.126;2023-09-12T09:17:47;35.60;82.00
666;DHT22;315;48.738;9.126;2023-09-12T09:20:30;35.50;78.00
666;DHT22;315;48.738;9.126;2023-09-12T09:23:04;34.80;79.20
666;DHT22;315;48.738;9.126;2023-09-12T09:25:39;35.20;78.00
666;DHT22;315;48.738;9.126;2023-09-12T09:28:26;36.40;74.50
666;DHT22;315;48.738;9.126;2023-09-12T09:30:51;37.40;69.40
666;DHT22;315;48.738;9.126;2023-09-12T09:33:20;38.30;64.30
666;DHT22;315;48.738;9.126;2023-09-12T09:35:47;39.00;61.70
666;DHT22;315;48.738;9.126;2023-09-12T09:38:13;39.30;58.00
666;DHT22;315;48.738;9.126;2023-09-12T09:40:44;39.80;57.00
666;DHT22;315;48.738;9.126;2023-09-12T09:43:10;40.50;53.60
666;DHT22;315;48.738;9.126;2023-09-12T09:45:43;40.70;52.40
666;DHT22;315;48.738;9.126;2023-09-12T09:48:10;39.50;51.80
666;DHT22;315;48.738;9.126;2023-09-12T09:50:42;38.10;52.80
666;DHT22;315;48.738;9.126;2023-09-12T09:53:08;39.20;52.00
666;DHT22;315;48.738;9.126;2023-09-12T09:55:35;40.50;50.80
666;DHT22;315;48.738;9.126;2023-09-12T09:58:01;40.20;49.50
666;DHT22;315;48.738;9.126;2023-09-12T10:00:28;40.20;49.40
666;DHT22;315;48.738;9.126;2023-09-12T10:02:55;41.30;48.50
666;DHT22;315;48.738;9.126;2023-09-12T10:05:21;42.20;46.20
666;DHT22;315;48.738;9.126;2023-09-12T10:07:49;41.20;45.30
666;DHT22;315;48.738;9.126;2023-09-12T10:10:17;41.60;45.50
666;DHT22;315;48.738;9.126;2023-09-12T10:12:50;42.80;44.50
666;DHT22;315;48.738;9.126;2023-09-12T10:15:19;43.60;43.00
666;DHT22;315;48.738;9.126;2023-09-12T10:17:47;43.10;41.70
666;DHT22;315;48.738;9.126;2023-09-12T10:20:20;41.30;44.00
666;DHT22;315;48.738;9.126;2023-09-12T10:23:06;41.30;44.90
666;DHT22;315;48.738;9.126;2023-09-12T10:25:36;41.30;44.40
666;DHT22;315;48.738;9.126;2023-09-12T10:28:04;41.90;43.50
666;DHT22;315;48.738;9.126;2023-09-12T10:30:30;42.90;43.50
666;DHT22;315;48.738;9.126;2023-09-12T10:32:57;43.90;41.00
666;DHT22;315;48.738;9.126;2023-09-12T10:35:23;44.60;40.70
666;DHT22;315;48.738;9.126;2023-09-12T10:37:49;45.40;41.20
666;DHT22;315;48.738;9.126;2023-09-12T10:40:17;45.90;39.60
666;DHT22;315;48.738;9.126;2023-09-12T10:42:43;46.80;39.00
666;DHT22;315;48.738;9.126;2023-09-12T10:45:09;46.50;38.00
666;DHT22;315;48.738;9.126;2023-09-12T10:47:36;46.20;37.10
666;DHT22;315;48.738;9.126;2023-09-12T10:50:02;46.00;36.80
666;DHT22;315;48.738;9.126;2023-09-12T10:52:29;45.90;36.30
666;DHT22;315;48.738;9.126;2023-09-12T10:54:54;46.30;36.10
666;DHT22;315;48.738;9.126;2023-09-12T10:57:20;46.50;35.40
666;DHT22;315;48.738;9.126;2023-09-12T11:02:38;47.10;35.30
666;DHT22;315;48.738;9.126;2023-09-12T11:05:06;47.30;34.70
666;DHT22;315;48.738;9.126;2023-09-12T11:08:18;47.80;34.00
666;DHT22;315;48.738;9.126;2023-09-12T11:10:20;47.60;34.10
666;DHT22;315;48.738;9.126;2023-09-12T11:12:51;47.20;33.70
666;DHT22;315;48.738;9.126;2023-09-12T11:15:20;46.60;33.80
666;DHT22;315;48.738;9.126;2023-09-12T11:17:51;46.70;33.60
666;DHT22;315;48.738;9.126;2023-09-12T11:20:24;46.30;33.30
666;DHT22;315;48.738;9.126;2023-09-12T11:22:50;45.20;33.60
666;DHT22;315;48.738;9.126;2023-09-12T11:25:22;45.40;34.30
666;DHT22;315;48.738;9.126;2023-09-12T11:30:18;47.50;32.50
666;DHT22;315;48.738;9.126;2023-09-12T11:32:45;47.80;31.60
666;DHT22;315;48.738;9.126;2023-09-12T11:35:11;46.80;31.10
666;DHT22;315;48.738;9.126;2023-09-12T11:37:38;47.00;31.40
666;DHT22;315;48.738;9.126;2023-09-12T11:40:25;47.30;30.80
666;DHT22;315;48.738;9.126;2023-09-12T11:42:51;47.10;30.60
666;DHT22;315;48.738;9.126;2023-09-12T11:45:21;47.30;30.10
666;DHT22;315;48.738;9.126;2023-09-12T11:47:47;47.60;29.70
666;DHT22;315;48.738;9.126;2023-09-12T11:50:34;48.30;29.30
666;DHT22;315;48.738;9.126;2023-09-12T11:53:06;48.80;28.40
666;DHT22;315;48.738;9.126;2023-09-12T11:55:48;49.10;28.10
666;DHT22;315;48.738;9.126;2023-09-12T11:58:17;49.30;27.70
666;DHT22;315;48.738;9.126;2023-09-12T12:00:57;49.40;28.70
666;DHT22;315;48.738;9.126;2023-09-12T12:03:25;50.10;28.40
666;DHT22;315;48.738;9.126;2023-09-12T12:05:51;50.10;28.00
666;DHT22;315;48.738;9.126;2023-09-12T12:08:18;49.40;27.90
666;DHT22;315;48.738;9.126;2023-09-12T12:10:43;47.70;28.60
666;DHT22;315;48.738;9.126;2023-09-12T12:13:16;47.50;28.90
666;DHT22;315;48.738;9.126;2023-09-12T12:15:42;48.90;28.20
666;DHT22;315;48.738;9.126;2023-09-12T12:18:08;48.90;27.80
666;DHT22;315;48.738;9.126;2023-09-12T12:20:33;48.50;27.90
666;DHT22;315;48.738;9.126;2023-09-12T12:22:59;48.50;28.20
666;DHT22;315;48.738;9.126;2023-09-12T12:25:24;48.10;27.70
666;DHT22;315;48.738;9.126;2023-09-12T12:27:50;48.20;27.60
666;DHT22;315;48.738;9.126;2023-09-12T12:30:17;48.50;27.60
666;DHT22;315;48.738;9.126;2023-09-12T12:32:44;46.90;27.60
666;DHT22;315;48.738;9.126;2023-09-12T12:35:18;46.30;27.90
666;DHT22;315;48.738;9.126;2023-09-12T12:37:44;46.70;27.70
666;DHT22;315;48.738;9.126;2023-09-12T12:40:12;47.20;27.20
666;DHT22;315;48.738;9.126;2023-09-12T12:42:39;46.70;26.90
666;DHT22;315;48.738;9.126;2023-09-12T12:45:13;44.80;28.30
666;DHT22;315;48.738;9.126;2023-09-12T12:47:39;44.80;29.00
666;DHT22;315;48.738;9.126;2023-09-12T12:50:14;46.30;28.30
666;DHT22;315;48.738;9.126;2023-09-12T12:52:40;45.30;28.40
666;DHT22;315;48.738;9.126;2023-09-12T12:55:10;42.80;29.30
666;DHT22;315;48.738;9.126;2023-09-12T12:57:40;40.80;31.00
666;DHT22;315;48.738;9.126;2023-09-12T13:00:14;40.60;32.00
666;DHT22;315;48.738;9.126;2023-09-12T13:02:40;41.90;30.60
666;DHT22;315;48.738;9.126;2023-09-12T13:05:26;45.00;29.40
666;DHT22;315;48.738;9.126;2023-09-12T13:07:51;46.50;27.80
666;DHT22;315;48.738;9.126;2023-09-12T13:10:17;47.10;27.30
666;DHT22;315;48.738;9.126;2023-09-12T13:12:43;45.60;27.70
666;DHT22;315;48.738;9.126;2023-09-12T13:15:11;43.40;28.90
666;DHT22;315;48.738;9.126;2023-09-12T13:17:37;41.90;30.00
666;DHT22;315;48.738;9.126;2023-09-12T13:20:02;40.90;30.50
666;DHT22;315;48.738;9.126;2023-09-12T13:22:28;39.80;31.10
666;DHT22;315;48.738;9.126;2023-09-12T13:24:54;40.20;31.30
666;DHT22;315;48.738;9.126;2023-09-12T13:27:19;41.30;30.60
666;DHT22;315;48.738;9.126;2023-09-12T13:29:45;41.90;29.80
666;DHT22;315;48.738;9.126;2023-09-12T13:32:10;40.60;30.20
666;DHT22;315;48.738;9.126;2023-09-12T13:34:38;39.30;31.80
666;DHT22;315;48.738;9.126;2023-09-12T13:37:03;37.80;32.80
666;DHT22;315;48.738;9.126;2023-09-12T13:39:29;36.40;34.10
666;DHT22;315;48.738;9.126;2023-09-12T13:41:54;35.50;35.40
666;DHT22;315;48.738;9.126;2023-09-12T13:44:23;34.80;36.30
666;DHT22;315;48.738;9.126;2023-09-12T13:46:48;34.40;37.10
666;DHT22;315;48.738;9.126;2023-09-12T13:49:14;34.20;37.50
666;DHT22;315;48.738;9.126;2023-09-12T13:51:39;33.90;38.10
666;DHT22;315;48.738;9.126;2023-09-12T13:54:05;34.00;38.30
666;DHT22;315;48.738;9.126;2023-09-12T13:56:32;34.40;38.50
666;DHT22;315;48.738;9.126;2023-09-12T13:58:57;34.80;38.10
666;DHT22;315;48.738;9.126;2023-09-12T14:01:23;35.10;37.50
666;DHT22;315;48.738;9.126;2023-09-12T14:03:48;34.80;38.30
666;DHT22;315;48.738;9.126;2023-09-12T14:06:14;34.70;38.90
666;DHT22;315;48.738;9.126;2023-09-12T14:08:39;34.40;39.50
666;DHT22;315;48.738;9.126;2023-09-12T14:11:05;34.00;39.90
666;DHT22;315;48.738;9.126;2023-09-12T14:13:30;33.70;40.70
666;DHT22;315;48.738;9.126;2023-09-12T14:15:56;33.70;40.90
666;DHT22;315;48.738;9.126;2023-09-12T14:18:22;33.20;41.00
666;DHT22;315;48.738;9.126;2023-09-12T14:20:47;33.00;41.60
666;DHT22;315;48.738;9.126;2023-09-12T14:23:13;32.80;41.70
666;DHT22;315;48.738;9.126;2023-09-12T14:25:38;32.60;42.20
666;DHT22;315;48.738;9.126;2023-09-12T14:28:04;32.30;42.50
666;DHT22;315;48.738;9.126;2023-09-12T14:30:30;32.10;43.20
666;DHT22;315;48.738;9.126;2023-09-12T14:33:01;32.00;43.40
666;DHT22;315;48.738;9.126;2023-09-12T14:35:27;32.00;43.50
666;DHT22;315;48.738;9.126;2023-09-12T14:37:52;31.80;43.60
666;DHT22;315;48.738;9.126;2023-09-12T14:40:18;31.60;43.70
666;DHT22;315;48.738;9.126;2023-09-12T14:42:43;31.40;44.30
666;DHT22;315;48.738;9.126;2023-09-12T14:45:10;31.40;44.60
666;DHT22;315;48.738;9.126;2023-09-12T14:47:35;31.30;44.80
666;DHT22;315;48.738;9.126;2023-09-12T14:50:01;31.10;45.00
666;DHT22;315;48.738;9.126;2023-09-12T14:52:27;31.10;45.60
666;DHT22;315;48.738;9.126;2023-09-12T14:54:53;31.10;45.70
666;DHT22;315;48.738;9.126;2023-09-12T14:57:18;31.10;45.70
666;DHT22;315;48.738;9.126;2023-09-12T14:59:45;31.00;45.80
666;DHT22;315;48.738;9.126;2023-09-12T15:02:11;31.20;46.10
666;DHT22;315;48.738;9.126;2023-09-12T15:04:36;31.30;47.30
666;DHT22;315;48.738;9.126;2023-09-12T15:07:02;31.40;46.80
666;DHT22;315;48.738;9.126;2023-09-12T15:09:27;31.40;46.40
666;DHT22;315;48.738;9.126;2023-09-12T15:11:53;31.50;46.60
666;DHT22;315;48.738;9.126;2023-09-12T15:14:19;31.50;46.30
666;DHT22;315;48.738;9.126;2023-09-12T15:16:44;31.60;46.20
666;DHT22;315;48.738;9.126;2023-09-12T15:19:09;31.70;46.40
666;DHT22;315;48.738;9.126;2023-09-12T15:21:35;31.70;46.50
666;DHT22;315;48.738;9.126;2023-09-12T15:24:01;31.80;46.30
666;DHT22;315;48.738;9.126;2023-09-12T15:26:26;31.80;45.80
666;DHT22;315;48.738;9.126;2023-09-12T15:28:52;31.70;46.10
666;DHT22;315;48.738;9.126;2023-09-12T15:31:18;31.50;46.00
666;DHT22;315;48.738;9.126;2023-09-12T15:33:44;31.10;47.20
666;DHT22;315;48.738;9.126;2023-09-12T15:36:10;31.00;48.00
666;DHT22;315;48.738;9.126;2023-09-12T15:38:35;30.90;47.90
666;DHT22;315;48.738;9.126;2023-09-12T15:41:01;30.70;48.70
666;DHT22;315;48.738;9.126;2023-09-12T15:43:28;30.70;49.60
666;DHT22;315;48.738;9.126;2023-09-12T15:45:54;30.50;50.00
666;DHT22;315;48.738;9.126;2023-09-12T15:48:19;30.40;50.30
666;DHT22;315;48.738;9.126;2023-09-12T15:50:45;30.30;50.80
666;DHT22;315;48.738;9.126;2023-09-12T15:53:11;30.10;50.90
666;DHT22;315;48.738;9.126;2023-09-12T15:55:36;30.00;50.70
666;DHT22;315;48.738;9.126;2023-09-12T15:58:02;29.90;51.90
666;DHT22;315;48.738;9.126;2023-09-12T16:00:27;29.80;52.30
666;DHT22;315;48.738;9.126;2023-09-12T16:02:53;29.80;53.00
666;DHT22;315;48.738;9.126;2023-09-12T16:05:18;29.80;54.40
666;DHT22;315;48.738;9.126;2023-09-12T16:07:44;29.60;54.50
666;DHT22;315;48.738;9.126;2023-09-12T16:10:10;29.50;54.90
666;DHT22;315;48.738;9.126;2023-09-12T16:12:37;29.40;55.50
666;DHT22;315;48.738;9.126;2023-09-12T16:15:04;29.40;55.50
666;DHT22;315;48.738;9.126;2023-09-12T16:17:30;29.40;55.10
666;DHT22;315;48.738;9.126;2023-09-12T16:19:56;29.60;55.10
666;DHT22;315;48.738;9.126;2023-09-12T16:22:21;29.60;54.20
666;DHT22;315;48.738;9.126;2023-09-12T16:24:47;29.70;55.50
666;DHT22;315;48.738;9.126;2023-09-12T16:27:12;29.70;54.90
666;DHT22;315;48.738;9.126;2023-09-12T16:29:38;29.70;56.80
666;DHT22;315;48.738;9.126;2023-09-12T16:32:04;29.70;56.70
666;DHT22;315;48.738;9.126;2023-09-12T16:34:29;29.70;56.30
666;DHT22;315;48.738;9.126;2023-09-12T16:36:55;29.60;57.60
666;DHT22;315;48.738;9.126;2023-09-12T16:39:21;29.60;57.00
666;DHT22;315;48.738;9.126;2023-09-12T16:41:46;29.60;57.50